Time,TemperatureF,DewpointF,PressureIn,WindDirection,WindDirectionDegrees,WindSpeedMPH,WindSpeedGustMPH,Humidity,HourlyPrecipIn,Conditions,Clouds,dailyrainin,SoftwareType,DateUTC
2013-10-07 00:13:00,54.2,43.0,30.02,West,273,6.0,-999.0,67,-99.99,,,0.00,weatherlink.com 1.10,2013-10-07 05:13:00,
2013-10-07 00:28:00,54.4,43.0,30.02,West,277,0.0,-999.0,66,-99.99,,,0.00,weatherlink.com 1.10,2013-10-07 05:28:00,
2013-10-07 00:43:00,54.3,43.0,30.02,West,281,8.0,-999.0,67,-99.99,,,0.00,weatherlink.com 1.10,2013-10-07 05:43:00,
2013-10-07 00:58:00,54.4,44.0,30.01,West,271,14.0,-999.0,67,-99.99,,,0.00,weatherlink.com 1.10,2013-10-07 05:58:00,
2013-10-07 01:13:00,54.6,43.0,30.01,WNW,294,5.0,-999.0,66,-99.99,,,0.00,weatherlink.com 1.10,2013-10-07 06:13:00,
2013-10-07 01:28:00,54.9,44.0,30.01,West,277,0.0,-999.0,66,-99.99,,,0.00,weatherlink.com 1.10,2013-10-07 06:28:00,
2013-10-07 01:43:00,55.3,44.0,30.02,WNW,296,0.0,-999.0,65,-99.99,,,0.00,weatherlink.com 1.10,2013-10-07 06:43:00,
2013-10-07 01:58:00,55.5,44.0,30.02,West,260,3.0,-999.0,65,-99.99,,,0.00,weatherlink.com 1.10,2013-10-07 06:58:00,
2013-10-07 02:13:00,55.5,44.0,30.02,WNW,296,4.0,-999.0,65,-99.99,,,0.00,weatherlink.com 1.10,2013-10-07 07:13:00,
2013-10-07 02:28:00,55.3,44.0,30.02,WNW,283,5.0,-999.0,65,-99.99,,,0.00,weatherlink.com 1.10,2013-10-07 07:28:00,
2013-10-07 02:43:00,54.8,43.0,30.03,West,279,0.0,-999.0,65,-99.99,,,0.00,weatherlink.com 1.10,2013-10-07 07:43:00,
2013-10-07 02:58:00,53.9,43.0,30.03,West,269,4.0,-999.0,67,-99.99,,,0.00,weatherlink.com 1.10,2013-10-07 07:58:00,
2013-10-07 03:13:00,53.3,43.0,30.02,West,271,1.0,-999.0,69,-99.99,,,0.00,weatherlink.com 1.10,2013-10-07 08:13:00,
2013-10-07 03:28:00,53.1,44.0,30.02,West,263,0.0,-999.0,70,-99.99,,,0.00,weatherlink.com 1.10,2013-10-07 08:28:00,
2013-10-07 03:43:00,53.2,44.0,30.02,West,279,5.0,-999.0,70,-99.99,,,0.00,weatherlink.com 1.10,2013-10-07 08:43:00,
2013-10-07 03:58:00,53.3,43.0,30.03,WNW,283,1.0,-999.0,69,-99.99,,,0.00,weatherlink.com 1.10,2013-10-07 08:58:00,
2013-10-07 04:13:00,53.1,44.0,30.03,WNW,296,4.0,-999.0,70,-99.99,,,0.00,weatherlink.com 1.10,2013-10-07 09:13:00,
2013-10-07 04:28:00,52.6,43.0,30.03,WNW,283,6.0,-999.0,71,-99.99,,,0.00,weatherlink.com 1.10,2013-10-07 09:28:00,
2013-10-07 04:43:00,52.1,43.0,30.04,West,263,4.0,-999.0,72,-99.99,,,0.00,weatherlink.com 1.10,2013-10-07 09:43:00,
2013-10-07 04:58:00,51.5,43.0,30.04,West,267,2.0,-999.0,74,-99.99,,,0.00,weatherlink.com 1.10,2013-10-07 09:58:00,
2013-10-07 05:13:00,50.9,43.0,30.04,WNW,291,0.0,-999.0,75,-99.99,,,0.00,weatherlink.com 1.10,2013-10-07 10:13:00,
2013-10-07 05:28:00,50.5,43.0,30.05,WNW,289,0.0,-999.0,76,-99.99,,,0.00,weatherlink.com 1.10,2013-10-07 10:28:00,
2013-10-07 05:43:00,50.1,43.0,30.06,NW,305,0.0,-999.0,77,-99.99,,,0.00,weatherlink.com 1.10,2013-10-07 10:43:00,
2013-10-07 05:58:00,49.9,43.0,30.06,NW,305,0.0,-999.0,77,-99.99,,,0.00,weatherlink.com 1.10,2013-10-07 10:58:00,
2013-10-07 06:13:00,49.8,43.0,30.06,NW,307,0.0,-999.0,77,-99.99,,,0.00,weatherlink.com 1.10,2013-10-07 11:13:00,
2013-10-07 06:28:00,49.5,43.0,30.06,NW,307,0.0,-999.0,78,-99.99,,,0.00,weatherlink.com 1.10,2013-10-07 11:28:00,
2013-10-07 06:43:00,50.0,43.0,30.06,NW,307,0.0,-999.0,77,-99.99,,,0.00,weatherlink.com 1.10,2013-10-07 11:43:00,
2013-10-07 06:58:00,51.0,44.0,30.06,NW,307,0.0,-999.0,76,-99.99,,,0.00,weatherlink.com 1.10,2013-10-07 11:58:00,
2013-10-07 07:13:00,51.7,44.0,30.07,NW,315,0.0,-999.0,74,-99.99,,,0.00,weatherlink.com 1.10,2013-10-07 12:13:00,
2013-10-07 07:28:00,52.2,44.0,30.07,NW,319,0.0,-999.0,73,-99.99,,,0.00,weatherlink.com 1.10,2013-10-07 12:28:00,
2013-10-07 07:43:00,53.1,44.0,30.07,NW,319,0.0,-999.0,72,-99.99,,,0.00,weatherlink.com 1.10,2013-10-07 12:43:00,
2013-10-07 07:58:00,53.9,44.0,30.08,NW,318,0.0,-999.0,70,-99.99,,,0.00,weatherlink.com 1.10,2013-10-07 12:58:00,
2013-10-07 08:13:00,54.4,44.0,30.09,North,355,0.0,-999.0,69,-99.99,,,0.00,weatherlink.com 1.10,2013-10-07 13:13:00,
2013-10-07 08:28:00,55.0,45.0,30.09,NE,35,0.0,-999.0,69,-99.99,,,0.00,weatherlink.com 1.10,2013-10-07 13:28:00,
2013-10-07 08:43:00,55.5,45.0,30.10,NNE,30,0.0,-999.0,68,-99.99,,,0.00,weatherlink.com 1.10,2013-10-07 13:43:00,
2013-10-07 08:58:00,56.1,45.0,30.10,NNW,327,0.0,-999.0,67,-99.99,,,0.00,weatherlink.com 1.10,2013-10-07 13:58:00,
2013-10-07 09:13:00,56.6,45.0,30.11,North,350,1.0,-999.0,66,-99.99,,,0.00,weatherlink.com 1.10,2013-10-07 14:13:00,
2013-10-07 09:28:00,57.2,45.0,30.11,North,350,0.0,-999.0,63,-99.99,,,0.00,weatherlink.com 1.10,2013-10-07 14:28:00,
2013-10-07 09:43:00,57.2,45.0,30.11,NW,322,0.0,-999.0,64,-99.99,,,0.00,weatherlink.com 1.10,2013-10-07 14:43:00,
2013-10-07 09:58:00,57.7,45.0,30.12,NW,320,0.0,-999.0,64,-99.99,,,0.00,weatherlink.com 1.10,2013-10-07 14:58:00,
2013-10-07 10:13:00,58.1,46.0,30.12,NNW,346,0.0,-999.0,64,-99.99,,,0.00,weatherlink.com 1.10,2013-10-07 15:13:00,
2013-10-07 10:28:00,58.7,46.0,30.12,NNW,345,0.0,-999.0,63,-99.99,,,0.00,weatherlink.com 1.10,2013-10-07 15:28:00,
2013-10-07 10:43:00,59.5,46.0,30.12,NNW,344,0.0,-999.0,61,-99.99,,,0.00,weatherlink.com 1.10,2013-10-07 15:43:00,
2013-10-07 10:58:00,58.9,47.0,30.12,NNW,346,0.0,-999.0,64,-99.99,,,0.00,weatherlink.com 1.10,2013-10-07 15:58:00,
2013-10-07 11:13:00,59.3,47.0,30.12,NNW,346,0.0,-999.0,65,-99.99,,,0.00,weatherlink.com 1.10,2013-10-07 16:13:00,
2013-10-07 11:28:00,59.9,47.0,30.12,NNW,347,0.0,-999.0,62,-99.99,,,0.00,weatherlink.com 1.10,2013-10-07 16:28:00,
2013-10-07 11:43:00,60.5,46.0,30.12,NNE,33,0.0,-999.0,60,-99.99,,,0.00,weatherlink.com 1.10,2013-10-07 16:43:00,
2013-10-07 11:58:00,60.8,47.0,30.12,NE,44,0.0,-999.0,60,-99.99,,,0.00,weatherlink.com 1.10,2013-10-07 16:58:00,
2013-10-07 12:13:00,61.2,48.0,30.12,WNW,298,0.0,-999.0,62,-99.99,,,0.00,weatherlink.com 1.10,2013-10-07 17:13:00,
2013-10-07 12:28:00,61.5,48.0,30.12,North,360,0.0,-999.0,62,-99.99,,,0.00,weatherlink.com 1.10,2013-10-07 17:28:00,
2013-10-07 12:43:00,62.3,48.0,30.12,NNE,15,0.0,-999.0,61,-99.99,,,0.00,weatherlink.com 1.10,2013-10-07 17:43:00,
2013-10-07 12:58:00,63.0,48.0,30.11,North,355,0.0,-999.0,58,-99.99,,,0.00,weatherlink.com 1.10,2013-10-07 17:58:00,
2013-10-07 13:13:00,63.6,49.0,30.11,North,355,0.0,-999.0,59,-99.99,,,0.00,weatherlink.com 1.10,2013-10-07 18:13:00,
2013-10-07 13:28:00,63.8,49.0,30.10,North,360,0.0,-999.0,58,-99.99,,,0.00,weatherlink.com 1.10,2013-10-07 18:28:00,
2013-10-07 13:43:00,63.6,48.0,30.10,North,360,0.0,-999.0,57,-99.99,,,0.00,weatherlink.com 1.10,2013-10-07 18:43:00,
2013-10-07 13:58:00,63.9,49.0,30.10,NNE,16,0.0,-999.0,59,-99.99,,,0.00,weatherlink.com 1.10,2013-10-07 18:58:00,
2013-10-07 14:13:00,64.1,48.0,30.09,NNE,30,0.0,-999.0,57,-99.99,,,0.00,weatherlink.com 1.10,2013-10-07 19:13:00,
2013-10-07 14:28:00,65.0,48.0,30.09,NNE,29,0.0,-999.0,55,-99.99,,,0.00,weatherlink.com 1.10,2013-10-07 19:28:00,
2013-10-07 14:43:00,65.4,48.0,30.09,NNE,31,0.0,-999.0,53,-99.99,,,0.00,weatherlink.com 1.10,2013-10-07 19:43:00,
2013-10-07 14:58:00,65.5,48.0,30.09,NNE,31,0.0,-999.0,54,-99.99,,,0.00,weatherlink.com 1.10,2013-10-07 19:58:00,
2013-10-07 15:13:00,66.1,49.0,30.09,NNE,31,0.0,-999.0,54,-99.99,,,0.00,weatherlink.com 1.10,2013-10-07 20:13:00,
2013-10-07 15:28:00,65.9,47.0,30.09,NNE,32,5.0,-999.0,51,-99.99,,,0.00,weatherlink.com 1.10,2013-10-07 20:28:00,
2013-10-07 15:43:00,65.2,47.0,30.08,NNE,32,0.0,-999.0,52,-99.99,,,0.00,weatherlink.com 1.10,2013-10-07 20:43:00,
2013-10-07 15:58:00,65.6,47.0,30.09,NNE,32,0.0,-999.0,51,-99.99,,,0.00,weatherlink.com 1.10,2013-10-07 20:58:00,
2013-10-07 16:13:00,65.5,46.0,30.08,NE,34,0.0,-999.0,49,-99.99,,,0.00,weatherlink.com 1.10,2013-10-07 21:13:00,
2013-10-07 16:28:00,65.4,45.0,30.08,NE,39,1.0,-999.0,48,-99.99,,,0.00,weatherlink.com 1.10,2013-10-07 21:28:00,
2013-10-07 16:43:00,65.4,47.0,30.08,NE,39,0.0,-999.0,51,-99.99,,,0.00,weatherlink.com 1.10,2013-10-07 21:43:00,
2013-10-07 16:58:00,65.4,46.0,30.08,NE,39,0.0,-999.0,50,-99.99,,,0.00,weatherlink.com 1.10,2013-10-07 21:58:00,
2013-10-07 17:13:00,65.1,46.0,30.08,NE,43,1.0,-999.0,51,-99.99,,,0.00,weatherlink.com 1.10,2013-10-07 22:13:00,
2013-10-07 17:28:00,64.4,46.0,30.08,NE,41,7.0,-999.0,51,-99.99,,,0.00,weatherlink.com 1.10,2013-10-07 22:28:00,
2013-10-07 17:43:00,64.2,45.0,30.08,NE,42,4.0,-999.0,50,-99.99,,,0.00,weatherlink.com 1.10,2013-10-07 22:43:00,
2013-10-07 17:58:00,63.9,46.0,30.09,NE,44,2.0,-999.0,52,-99.99,,,0.00,weatherlink.com 1.10,2013-10-07 22:58:00,
2013-10-07 18:13:00,63.6,45.0,30.09,NE,44,4.0,-999.0,52,-99.99,,,0.00,weatherlink.com 1.10,2013-10-07 23:13:00,
2013-10-07 18:28:00,63.4,46.0,30.09,NE,46,0.0,-999.0,53,-99.99,,,0.00,weatherlink.com 1.10,2013-10-07 23:28:00,
2013-10-07 18:43:00,63.2,45.0,30.09,NE,45,1.0,-999.0,52,-99.99,,,0.00,weatherlink.com 1.10,2013-10-07 23:43:00,
2013-10-07 18:58:00,62.8,45.0,30.09,NE,47,7.0,-999.0,52,-99.99,,,0.00,weatherlink.com 1.10,2013-10-07 23:58:00,
2013-10-07 19:13:00,62.5,45.0,30.09,NE,46,4.0,-999.0,54,-99.99,,,0.00,weatherlink.com 1.10,2013-10-08 00:13:00,
2013-10-07 19:28:00,62.0,46.0,30.09,NE,46,3.0,-999.0,57,-99.99,,,0.00,weatherlink.com 1.10,2013-10-08 00:28:00,
2013-10-07 19:43:00,61.8,48.0,30.10,NE,44,0.0,-999.0,60,-99.99,,,0.00,weatherlink.com 1.10,2013-10-08 00:43:00,
2013-10-07 19:58:00,61.6,47.0,30.10,NE,41,7.0,-999.0,60,-99.99,,,0.00,weatherlink.com 1.10,2013-10-08 00:58:00,
2013-10-07 20:13:00,61.4,47.0,30.10,NE,42,2.0,-999.0,60,-99.99,,,0.00,weatherlink.com 1.10,2013-10-08 01:13:00,
2013-10-07 20:28:00,61.2,46.0,30.10,NE,43,0.0,-999.0,58,-99.99,,,0.00,weatherlink.com 1.10,2013-10-08 01:28:00,
2013-10-07 20:43:00,61.2,46.0,30.11,NE,45,5.0,-999.0,58,-99.99,,,0.00,weatherlink.com 1.10,2013-10-08 01:43:00,
2013-10-07 20:58:00,61.0,46.0,30.11,NE,46,6.0,-999.0,58,-99.99,,,0.00,weatherlink.com 1.10,2013-10-08 01:58:00,
2013-10-07 21:13:00,60.6,47.0,30.11,NE,46,8.0,-999.0,61,-99.99,,,0.00,weatherlink.com 1.10,2013-10-08 02:13:00,
2013-10-07 21:28:00,60.0,48.0,30.11,NE,44,4.0,-999.0,64,-99.99,,,0.00,weatherlink.com 1.10,2013-10-08 02:28:00,
2013-10-07 21:43:00,59.7,47.0,30.12,NE,46,4.0,-999.0,63,-99.99,,,0.00,weatherlink.com 1.10,2013-10-08 02:43:00,
2013-10-07 21:58:00,59.5,47.0,30.12,NE,47,5.0,-999.0,64,-99.99,,,0.00,weatherlink.com 1.10,2013-10-08 02:58:00,
2013-10-07 22:13:00,59.7,46.0,30.12,NE,50,10.0,-999.0,62,-99.99,,,0.00,weatherlink.com 1.10,2013-10-08 03:13:00,
2013-10-07 22:28:00,59.6,46.0,30.12,NE,40,14.0,-999.0,62,-99.99,,,0.00,weatherlink.com 1.10,2013-10-08 03:28:00,
2013-10-07 22:43:00,59.2,46.0,30.12,NE,48,10.0,-999.0,62,-99.99,,,0.00,weatherlink.com 1.10,2013-10-08 03:43:00,
2013-10-07 22:58:00,58.8,46.0,30.12,NE,44,9.0,-999.0,63,-99.99,,,0.00,weatherlink.com 1.10,2013-10-08 03:58:00,
2013-10-07 23:13:00,58.4,46.0,30.13,ENE,57,6.0,-999.0,64,-99.99,,,0.00,weatherlink.com 1.10,2013-10-08 04:13:00,
2013-10-07 23:28:00,58.5,46.0,30.12,ENE,63,7.0,-999.0,63,-99.99,,,0.00,weatherlink.com 1.10,2013-10-08 04:28:00,
2013-10-07 23:43:00,58.6,45.0,30.12,ENE,57,7.0,-999.0,62,-99.99,,,0.00,weatherlink.com 1.10,2013-10-08 04:43:00,
2013-10-07 23:58:00,58.5,45.0,30.12,NE,42,7.0,-999.0,62,-99.99,,,0.00,weatherlink.com 1.10,2013-10-08 04:58:00,